sensor_id;sensor_type;location;lat;lon;timestamp;temperature;humidity
27128;DHT22;14660;49.008;8.390;2022-08-19T00:01:48;22.80;99.90
27128;DHT22;14660;49.008;8.390;2022-08-19T00:04:17;22.90;99.90
27128;DHT22;14660;49.008;8.390;2022-08-19T00:06:46;22.90;99.90
27128;DHT22;14660;49.008;8.390;2022-08-19T00:09:15;22.80;99.90
27128;DHT22;14660;49.008;8.390;2022-08-19T00:11:44;22.90;99.90
27128;DHT22;14660;49.008;8.390;2022-08-19T00:14:12;22.80;99.90
27128;DHT22;14660;49.008;8.390;2022-08-19T00:16:42;22.80;99.90
27128;DHT22;14660;49.008;8.390;2022-08-19T00:19:10;22.80;99.90
27128;DHT22;14660;49.008;8.390;2022-08-19T00:21:37;22.80;99.90
27128;DHT22;14660;49.008;8.390;2022-08-19T00:24:08;22.80;99.90
27128;DHT22;14660;49.008;8.390;2022-08-19T00:26:35;22.90;99.90
27128;DHT22;14660;49.008;8.390;2022-08-19T00:29:04;22.90;99.90
27128;DHT22;14660;49.008;8.390;2022-08-19T00:31:31;22.80;99.90
27128;DHT22;14660;49.008;8.390;2022-08-19T00:33:59;22.80;99.90
27128;DHT22;14660;49.008;8.390;2022-08-19T00:36:26;22.80;99.90
27128;DHT22;14660;49.008;8.390;2022-08-19T00:38:55;22.80;99.90
27128;DHT22;14660;49.008;8.390;2022-08-19T00:44:17;22.80;99.90
27128;DHT22;14660;49.008;8.390;2022-08-19T00:46:46;22.70;99.90
27128;DHT22;14660;49.008;8.390;2022-08-19T00:49:26;22.80;99.90
27128;DHT22;14660;49.008;8.390;2022-08-19T00:52:02;22.70;99.90
27128;DHT22;14660;49.008;8.390;2022-08-19T00:54:29;22.70;99.90
27128;DHT22;14660;49.008;8.390;2022-08-19T00:56:59;22.70;99.90
27128;DHT22;14660;49.008;8.390;2022-08-19T00:59:28;22.80;99.90
27128;DHT22;14660;49.008;8.390;2022-08-19T01:01:55;22.70;99.90
27128;DHT22;14660;49.008;8.390;2022-08-19T01:04:22;22.70;99.90
27128;DHT22;14660;49.008;8.390;2022-08-19T01:06:49;22.70;99.90
27128;DHT22;14660;49.008;8.390;2022-08-19T01:09:16;22.70;99.90
27128;DHT22;14660;49.008;8.390;2022-08-19T01:11:44;22.70;99.90
27128;DHT22;14660;49.008;8.390;2022-08-19T01:14:12;22.70;99.90
27128;DHT22;14660;49.008;8.390;2022-08-19T01:16:40;22.70;99.90
27128;DHT22;14660;49.008;8.390;2022-08-19T01:19:18;22.70;99.90
27128;DHT22;14660;49.008;8.390;2022-08-19T01:22:00;22.70;99.90
27128;DHT22;14660;49.008;8.390;2022-08-19T01:24:29;22.60;99.90
27128;DHT22;14660;49.008;8.390;2022-08-19T01:26:57;22.60;99.90
27128;DHT22;14660;49.008;8.390;2022-08-19T01:29:25;22.60;99.90
27128;DHT22;14660;49.008;8.390;2022-08-19T01:31:51;22.60;99.90
27128;DHT22;14660;49.008;8.390;2022-08-19T01:34:19;22.70;99.90
27128;DHT22;14660;49.008;8.390;2022-08-19T01:36:47;22.60;99.90
27128;DHT22;14660;49.008;8.390;2022-08-19T01:39:23;22.60;99.90
27128;DHT22;14660;49.008;8.390;2022-08-19T01:41:51;22.70;99.90
27128;DHT22;14660;49.008;8.390;2022-08-19T01:44:21;22.60;99.90
27128;DHT22;14660;49.008;8.390;2022-08-19T01:46:51;22.60;99.90
27128;DHT22;14660;49.008;8.390;2022-08-19T01:49:21;22.60;99.90
27128;DHT22;14660;49.008;8.390;2022-08-19T01:51:49;22.60;99.90
27128;DHT22;14660;49.008;8.390;2022-08-19T01:54:18;22.60;99.90
27128;DHT22;14660;49.008;8.390;2022-08-19T01:56:45;22.60;99.90
27128;DHT22;14660;49.008;8.390;2022-08-19T01:59:15;22.50;99.90
27128;DHT22;14660;49.008;8.390;2022-08-19T02:01:43;22.60;99.90
27128;DHT22;14660;49.008;8.390;2022-08-19T02:04:10;22.60;99.90
27128;DHT22;14660;49.008;8.390;2022-08-19T02:06:37;22.50;99.90
27128;DHT22;14660;49.008;8.390;2022-08-19T02:09:05;22.50;99.90
27128;DHT22;14660;49.008;8.390;2022-08-19T02:11:34;22.50;99.90
27128;DHT22;14660;49.008;8.390;2022-08-19T02:14:04;22.50;99.90
27128;DHT22;14660;49.008;8.390;2022-08-19T02:16:32;22.40;99.90
27128;DHT22;14660;49.008;8.390;2022-08-19T02:18:59;22.50;99.90
27128;DHT22;14660;49.008;8.390;2022-08-19T02:21:27;22.50;99.90
27128;DHT22;14660;49.008;8.390;2022-08-19T02:23:55;22.40;99.90
27128;DHT22;14660;49.008;8.390;2022-08-19T02:26:22;22.40;99.90
27128;DHT22;14660;49.008;8.390;2022-08-19T02:28:49;22.50;99.90
27128;DHT22;14660;49.008;8.390;2022-08-19T02:31:18;22.50;99.90
27128;DHT22;14660;49.008;8.390;2022-08-19T02:33:46;22.50;99.90
27128;DHT22;14660;49.008;8.390;2022-08-19T02:36:15;22.40;99.90
27128;DHT22;14660;49.008;8.390;2022-08-19T02:38:43;22.50;99.90
27128;DHT22;14660;49.008;8.390;2022-08-19T02:41:17;22.50;99.90
27128;DHT22;14660;49.008;8.390;2022-08-19T02:43:45;22.50;99.90
27128;DHT22;14660;49.008;8.390;2022-08-19T02:46:19;22.50;99.90
27128;DHT22;14660;49.008;8.390;2022-08-19T02:48:49;22.40;99.90
27128;DHT22;14660;49.008;8.390;2022-08-19T02:51:27;22.40;99.90
27128;DHT22;14660;49.008;8.390;2022-08-19T02:53:54;22.40;99.90
27128;DHT22;14660;49.008;8.390;2022-08-19T02:56:21;22.40;99.90
27128;DHT22;14660;49.008;8.390;2022-08-19T02:58:48;22.40;99.90
27128;DHT22;14660;49.008;8.390;2022-08-19T03:01:28;22.40;99.90
27128;DHT22;14660;49.008;8.390;2022-08-19T03:03:56;22.40;99.90
27128;DHT22;14660;49.008;8.390;2022-08-19T03:06:23;22.40;99.90
27128;DHT22;14660;49.008;8.390;2022-08-19T03:08:50;22.30;99.90
27128;DHT22;14660;49.008;8.390;2022-08-19T03:11:28;22.30;99.90
27128;DHT22;14660;49.008;8.390;2022-08-19T03:13:56;22.30;99.90
27128;DHT22;14660;49.008;8.390;2022-08-19T03:16:27;22.30;99.90
27128;DHT22;14660;49.008;8.390;2022-08-19T03:18:56;22.30;99.90
27128;DHT22;14660;49.008;8.390;2022-08-19T03:21:28;22.30;99.90
27128;DHT22;14660;49.008;8.390;2022-08-19T03:23:58;22.30;99.90
27128;DHT22;14660;49.008;8.390;2022-08-19T03:26:25;22.30;99.90
27128;DHT22;14660;49.008;8.390;2022-08-19T03:28:52;22.30;99.90
27128;DHT22;14660;49.008;8.390;2022-08-19T03:31:21;22.30;99.90
27128;DHT22;14660;49.008;8.390;2022-08-19T03:33:50;22.20;99.90
27128;DHT22;14660;49.008;8.390;2022-08-19T03:36:23;22.30;99.90
27128;DHT22;14660;49.008;8.390;2022-08-19T03:38:59;22.20;99.90
27128;DHT22;14660;49.008;8.390;2022-08-19T03:41:47;22.20;99.90
27128;DHT22;14660;49.008;8.390;2022-08-19T03:44:21;22.20;99.90
27128;DHT22;14660;49.008;8.390;2022-08-19T03:46:53;22.20;99.90
27128;DHT22;14660;49.008;8.390;2022-08-19T03:49:22;22.20;99.90
27128;DHT22;14660;49.008;8.390;2022-08-19T03:51:50;22.20;99.90
27128;DHT22;14660;49.008;8.390;2022-08-19T03:54:20;22.20;99.90
27128;DHT22;14660;49.008;8.390;2022-08-19T03:56:51;22.20;99.90
27128;DHT22;14660;49.008;8.390;2022-08-19T03:59:24;22.10;99.90
27128;DHT22;14660;49.008;8.390;2022-08-19T04:01:57;22.10;99.90
27128;DHT22;14660;49.008;8.390;2022-08-19T04:04:24;22.10;99.90
27128;DHT22;14660;49.008;8.390;2022-08-19T04:06:52;22.10;99.90
27128;DHT22;14660;49.008;8.390;2022-08-19T04:09:19;22.10;99.90
27128;DHT22;14660;49.008;8.390;2022-08-19T04:11:50;22.10;99.90
27128;DHT22;14660;49.008;8.390;2022-08-19T04:14:20;22.00;99.90
27128;DHT22;14660;49.008;8.390;2022-08-19T04:16:47;22.10;99.90
27128;DHT22;14660;49.008;8.390;2022-08-19T04:19:17;22.10;99.90
27128;DHT22;14660;49.008;8.390;2022-08-19T04:21:47;22.00;99.90
27128;DHT22;14660;49.008;8.390;2022-08-19T04:24:15;22.00;99.90
27128;DHT22;14660;49.008;8.390;2022-08-19T04:26:42;22.00;99.90
27128;DHT22;14660;49.008;8.390;2022-08-19T04:29:15;22.00;99.90
27128;DHT22;14660;49.008;8.390;2022-08-19T04:31:43;21.90;99.90
27128;DHT22;14660;49.008;8.390;2022-08-19T04:34:14;21.90;99.90
27128;DHT22;14660;49.008;8.390;2022-08-19T04:36:42;21.90;99.90
27128;DHT22;14660;49.008;8.390;2022-08-19T04:39:16;21.90;99.90
27128;DHT22;14660;49.008;8.390;2022-08-19T04:41:44;21.90;99.90
27128;DHT22;14660;49.008;8.390;2022-08-19T04:44:32;21.90;99.90
27128;DHT22;14660;49.008;8.390;2022-08-19T04:46:59;21.90;99.90
27128;DHT22;14660;49.008;8.390;2022-08-19T04:49:26;21.90;99.90
27128;DHT22;14660;49.008;8.390;2022-08-19T04:51:54;22.00;99.90
27128;DHT22;14660;49.008;8.390;2022-08-19T04:54:24;22.00;99.90
27128;DHT22;14660;49.008;8.390;2022-08-19T04:56:54;22.00;99.90
27128;DHT22;14660;49.008;8.390;2022-08-19T04:59:22;22.00;99.90
27128;DHT22;14660;49.008;8.390;2022-08-19T05:01:50;22.00;99.90
27128;DHT22;14660;49.008;8.390;2022-08-19T05:04:20;22.10;99.90
27128;DHT22;14660;49.008;8.390;2022-08-19T05:06:49;22.10;99.90
27128;DHT22;14660;49.008;8.390;2022-08-19T05:09:17;22.10;99.90
27128;DHT22;14660;49.008;8.390;2022-08-19T05:11:44;22.10;99.90
27128;DHT22;14660;49.008;8.390;2022-08-19T05:14:11;22.20;99.90
27128;DHT22;14660;49.008;8.390;2022-08-19T05:16:40;22.20;99.90
27128;DHT22;14660;49.008;8.390;2022-08-19T05:19:08;22.20;99.90
27128;DHT22;14660;49.008;8.390;2022-08-19T05:21:53;22.20;99.90
27128;DHT22;14660;49.008;8.390;2022-08-19T05:24:40;22.20;99.90
27128;DHT22;14660;49.008;8.390;2022-08-19T05:27:07;22.30;99.90
27128;DHT22;14660;49.008;8.390;2022-08-19T05:29:34;22.30;99.90
27128;DHT22;14660;49.008;8.390;2022-08-19T05:32:03;22.20;99.90
27128;DHT22;14660;49.008;8.390;2022-08-19T05:34:30;22.30;99.90
27128;DHT22;14660;49.008;8.390;2022-08-19T05:37:01;22.30;99.90
27128;DHT22;14660;49.008;8.390;2022-08-19T05:39:30;22.40;99.90
27128;DHT22;14660;49.008;8.390;2022-08-19T05:42:04;22.40;99.90
27128;DHT22;14660;49.008;8.390;2022-08-19T05:44:35;22.30;99.90
27128;DHT22;14660;49.008;8.390;2022-08-19T05:47:05;22.40;99.90
27128;DHT22;14660;49.008;8.390;2022-08-19T05:49:35;22.40;99.90
27128;DHT22;14660;49.008;8.390;2022-08-19T05:52:14;22.50;99.90
27128;DHT22;14660;49.008;8.390;2022-08-19T05:54:45;22.50;99.90
27128;DHT22;14660;49.008;8.390;2022-08-19T05:57:14;22.50;99.90
27128;DHT22;14660;49.008;8.390;2022-08-19T05:59:42;22.50;99.90
27128;DHT22;14660;49.008;8.390;2022-08-19T06:02:12;22.50;99.90
27128;DHT22;14660;49.008;8.390;2022-08-19T06:04:40;22.50;99.90
27128;DHT22;14660;49.008;8.390;2022-08-19T06:07:09;22.50;99.90
27128;DHT22;14660;49.008;8.390;2022-08-19T06:09:36;22.50;99.90
27128;DHT22;14660;49.008;8.390;2022-08-19T06:12:03;22.50;99.90
27128;DHT22;14660;49.008;8.390;2022-08-19T06:14:33;22.50;99.90
27128;DHT22;14660;49.008;8.390;2022-08-19T06:17:03;22.50;99.90
27128;DHT22;14660;49.008;8.390;2022-08-19T06:19:33;22.50;99.90
27128;DHT22;14660;49.008;8.390;2022-08-19T06:22:00;22.50;99.90
27128;DHT22;14660;49.008;8.390;2022-08-19T06:24:28;22.50;99.90
27128;DHT22;14660;49.008;8.390;2022-08-19T06:26:56;22.50;99.90
27128;DHT22;14660;49.008;8.390;2022-08-19T06:29:25;22.50;99.90
27128;DHT22;14660;49.008;8.390;2022-08-19T06:31:57;22.50;99.90
27128;DHT22;14660;49.008;8.390;2022-08-19T06:34:25;22.60;99.90
27128;DHT22;14660;49.008;8.390;2022-08-19T06:36:55;22.60;99.90
27128;DHT22;14660;49.008;8.390;2022-08-19T06:39:24;22.60;99.90
27128;DHT22;14660;49.008;8.390;2022-08-19T06:41:54;22.60;99.90
27128;DHT22;14660;49.008;8.390;2022-08-19T06:44:24;22.60;99.90
27128;DHT22;14660;49.008;8.390;2022-08-19T06:46:53;22.70;99.90
27128;DHT22;14660;49.008;8.390;2022-08-19T06:49:21;22.70;99.90
27128;DHT22;14660;49.008;8.390;2022-08-19T06:51:49;22.70;99.90
27128;DHT22;14660;49.008;8.390;2022-08-19T06:54:17;22.70;99.90
27128;DHT22;14660;49.008;8.390;2022-08-19T06:56:45;22.80;99.90
27128;DHT22;14660;49.008;8.390;2022-08-19T06:59:15;22.80;99.90
27128;DHT22;14660;49.008;8.390;2022-08-19T07:01:48;22.90;99.90
27128;DHT22;14660;49.008;8.390;2022-08-19T07:04:20;22.90;99.90
27128;DHT22;14660;49.008;8.390;2022-08-19T07:06:48;22.90;99.90
27128;DHT22;14660;49.008;8.390;2022-08-19T07:09:17;22.90;99.90
27128;DHT22;14660;49.008;8.390;2022-08-19T07:11:50;23.00;99.90
27128;DHT22;14660;49.008;8.390;2022-08-19T07:14:19;23.10;99.90
27128;DHT22;14660;49.008;8.390;2022-08-19T07:16:48;23.20;99.90
27128;DHT22;14660;49.008;8.390;2022-08-19T07:19:17;23.20;99.90
27128;DHT22;14660;49.008;8.390;2022-08-19T07:21:46;23.30;99.90
27128;DHT22;14660;49.008;8.390;2022-08-19T07:24:14;23.40;99.90
27128;DHT22;14660;49.008;8.390;2022-08-19T07:26:42;23.40;99.90
27128;DHT22;14660;49.008;8.390;2022-08-19T07:29:10;23.50;99.90
27128;DHT22;14660;49.008;8.390;2022-08-19T07:31:38;23.60;99.90
27128;DHT22;14660;49.008;8.390;2022-08-19T07:34:07;23.60;99.90
27128;DHT22;14660;49.008;8.390;2022-08-19T07:36:36;23.70;99.90
27128;DHT22;14660;49.008;8.390;2022-08-19T07:39:10;23.80;99.90
27128;DHT22;14660;49.008;8.390;2022-08-19T07:41:37;23.90;99.90
27128;DHT22;14660;49.008;8.390;2022-08-19T07:44:07;23.90;99.90
27128;DHT22;14660;49.008;8.390;2022-08-19T07:46:37;23.90;99.90
27128;DHT22;14660;49.008;8.390;2022-08-19T07:49:06;23.90;99.90
27128;DHT22;14660;49.008;8.390;2022-08-19T07:51:35;24.00;99.90
27128;DHT22;14660;49.008;8.390;2022-08-19T07:54:03;24.00;99.90
27128;DHT22;14660;49.008;8.390;2022-08-19T07:56:30;24.00;99.90
27128;DHT22;14660;49.008;8.390;2022-08-19T07:58:57;24.10;99.90
27128;DHT22;14660;49.008;8.390;2022-08-19T08:01:26;24.10;99.90
27128;DHT22;14660;49.008;8.390;2022-08-19T08:03:55;24.00;99.90
27128;DHT22;14660;49.008;8.390;2022-08-19T08:06:41;24.00;99.90
27128;DHT22;14660;49.008;8.390;2022-08-19T08:09:31;24.00;99.90
27128;DHT22;14660;49.008;8.390;2022-08-19T08:12:15;24.00;99.90
27128;DHT22;14660;49.008;8.390;2022-08-19T08:14:47;24.10;99.90
27128;DHT22;14660;49.008;8.390;2022-08-19T08:17:17;24.10;99.90
27128;DHT22;14660;49.008;8.390;2022-08-19T08:19:45;24.10;99.90
27128;DHT22;14660;49.008;8.390;2022-08-19T08:22:17;24.20;99.90
27128;DHT22;14660;49.008;8.390;2022-08-19T08:25:06;24.10;99.90
27128;DHT22;14660;49.008;8.390;2022-08-19T08:27:39;24.20;99.90
27128;DHT22;14660;49.008;8.390;2022-08-19T08:30:17;24.40;99.90
27128;DHT22;14660;49.008;8.390;2022-08-19T08:32:43;24.60;99.90
27128;DHT22;14660;49.008;8.390;2022-08-19T08:35:13;24.70;99.90
27128;DHT22;14660;49.008;8.390;2022-08-19T08:37:40;24.80;99.90
27128;DHT22;14660;49.008;8.390;2022-08-19T08:40:48;25.00;99.90
27128;DHT22;14660;49.008;8.390;2022-08-19T08:43:37;25.00;99.90
27128;DHT22;14660;49.008;8.390;2022-08-19T08:46:13;25.10;99.90
27128;DHT22;14660;49.008;8.390;2022-08-19T08:49:04;25.00;99.90
27128;DHT22;14660;49.008;8.390;2022-08-19T08:51:44;25.00;99.90
27128;DHT22;14660;49.008;8.390;2022-08-19T08:54:17;25.10;99.90
27128;DHT22;14660;49.008;8.390;2022-08-19T08:56:47;25.20;99.90
27128;DHT22;14660;49.008;8.390;2022-08-19T08:59:34;25.30;99.90
27128;DHT22;14660;49.008;8.390;2022-08-19T09:02:02;25.40;99.90
27128;DHT22;14660;49.008;8.390;2022-08-19T09:04:29;25.40;99.90
27128;DHT22;14660;49.008;8.390;2022-08-19T09:10:02;25.40;99.90
27128;DHT22;14660;49.008;8.390;2022-08-19T09:15:38;25.20;99.90
27128;DHT22;14660;49.008;8.390;2022-08-19T09:18:08;25.10;99.90
27128;DHT22;14660;49.008;8.390;2022-08-19T09:20:35;25.10;99.90
27128;DHT22;14660;49.008;8.390;2022-08-19T09:23:02;25.10;99.90
27128;DHT22;14660;49.008;8.390;2022-08-19T09:25:30;25.10;99.90
27128;DHT22;14660;49.008;8.390;2022-08-19T09:27:58;25.10;99.90
27128;DHT22;14660;49.008;8.390;2022-08-19T09:30:31;25.10;99.90
27128;DHT22;14660;49.008;8.390;2022-08-19T09:32:59;25.10;99.90
27128;DHT22;14660;49.008;8.390;2022-08-19T09:35:28;25.20;99.90
27128;DHT22;14660;49.008;8.390;2022-08-19T09:37:57;25.30;99.90
27128;DHT22;14660;49.008;8.390;2022-08-19T09:40:24;25.30;99.90
27128;DHT22;14660;49.008;8.390;2022-08-19T09:42:52;25.30;99.90
27128;DHT22;14660;49.008;8.390;2022-08-19T09:45:20;25.40;99.90
27128;DHT22;14660;49.008;8.390;2022-08-19T09:47:52;25.60;99.90
27128;DHT22;14660;49.008;8.390;2022-08-19T09:50:19;25.70;99.90
27128;DHT22;14660;49.008;8.390;2022-08-19T09:52:46;25.90;99.90
27128;DHT22;14660;49.008;8.390;2022-08-19T09:55:13;26.00;99.90
27128;DHT22;14660;49.008;8.390;2022-08-19T09:57:42;26.10;99.90
27128;DHT22;14660;49.008;8.390;2022-08-19T10:00:09;26.20;99.90
27128;DHT22;14660;49.008;8.390;2022-08-19T10:02:36;26.20;99.90
27128;DHT22;14660;49.008;8.390;2022-08-19T10:05:02;26.10;99.90
27128;DHT22;14660;49.008;8.390;2022-08-19T10:08:04;26.10;99.90
27128;DHT22;14660;49.008;8.390;2022-08-19T10:10:35;26.10;99.90
27128;DHT22;14660;49.008;8.390;2022-08-19T10:13:02;26.10;99.90
27128;DHT22;14660;49.008;8.390;2022-08-19T10:15:32;26.20;99.90
27128;DHT22;14660;49.008;8.390;2022-08-19T10:18:01;26.20;99.90
27128;DHT22;14660;49.008;8.390;2022-08-19T10:20:30;26.30;99.90
27128;DHT22;14660;49.008;8.390;2022-08-19T10:22:57;26.30;99.90
27128;DHT22;14660;49.008;8.390;2022-08-19T10:25:25;26.40;99.90
27128;DHT22;14660;49.008;8.390;2022-08-19T10:27:54;26.40;99.90
27128;DHT22;14660;49.008;8.390;2022-08-19T10:30:21;26.50;99.90
27128;DHT22;14660;49.008;8.390;2022-08-19T10:32:49;26.60;99.90
27128;DHT22;14660;49.008;8.390;2022-08-19T10:35:16;26.70;99.90
27128;DHT22;14660;49.008;8.390;2022-08-19T10:37:44;26.80;99.90
27128;DHT22;14660;49.008;8.390;2022-08-19T10:40:09;26.90;99.90
27128;DHT22;14660;49.008;8.390;2022-08-19T10:42:38;26.90;99.90
27128;DHT22;14660;49.008;8.390;2022-08-19T10:45:07;27.00;99.90
27128;DHT22;14660;49.008;8.390;2022-08-19T10:47:34;27.00;99.90
27128;DHT22;14660;49.008;8.390;2022-08-19T10:50:06;27.10;99.90
27128;DHT22;14660;49.008;8.390;2022-08-19T10:52:51;27.20;99.90
27128;DHT22;14660;49.008;8.390;2022-08-19T10:55:21;27.20;99.90
27128;DHT22;14660;49.008;8.390;2022-08-19T10:58:19;27.20;99.90
27128;DHT22;14660;49.008;8.390;2022-08-19T11:00:56;27.10;99.90
27128;DHT22;14660;49.008;8.390;2022-08-19T11:03:24;27.20;99.90
27128;DHT22;14660;49.008;8.390;2022-08-19T11:06:06;27.20;99.90
27128;DHT22;14660;49.008;8.390;2022-08-19T11:08:35;27.10;99.90
27128;DHT22;14660;49.008;8.390;2022-08-19T11:11:05;27.20;99.90
27128;DHT22;14660;49.008;8.390;2022-08-19T11:13:34;27.30;99.90
27128;DHT22;14660;49.008;8.390;2022-08-19T11:16:23;27.30;99.90
27128;DHT22;14660;49.008;8.390;2022-08-19T11:18:53;27.20;99.90
27128;DHT22;14660;49.008;8.390;2022-08-19T11:21:41;27.20;99.90
27128;DHT22;14660;49.008;8.390;2022-08-19T11:24:18;27.20;99.90
27128;DHT22;14660;49.008;8.390;2022-08-19T11:26:48;27.20;99.90
27128;DHT22;14660;49.008;8.390;2022-08-19T11:29:19;27.20;99.90
27128;DHT22;14660;49.008;8.390;2022-08-19T11:31:51;27.10;99.90
27128;DHT22;14660;49.008;8.390;2022-08-19T11:34:23;27.10;99.90
27128;DHT22;14660;49.008;8.390;2022-08-19T11:36:55;27.00;99.90
27128;DHT22;14660;49.008;8.390;2022-08-19T11:39:28;27.10;99.90
27128;DHT22;14660;49.008;8.390;2022-08-19T11:41:57;27.20;99.90
27128;DHT22;14660;49.008;8.390;2022-08-19T11:44:23;27.40;99.90
27128;DHT22;14660;49.008;8.390;2022-08-19T11:46:50;27.60;99.90
27128;DHT22;14660;49.008;8.390;2022-08-19T11:49:19;27.70;99.90
27128;DHT22;14660;49.008;8.390;2022-08-19T11:51:47;27.70;99.90
27128;DHT22;14660;49.008;8.390;2022-08-19T11:54:16;27.70;99.90
27128;DHT22;14660;49.008;8.390;2022-08-19T11:56:44;27.70;99.90
27128;DHT22;14660;49.008;8.390;2022-08-19T11:59:11;27.80;99.90
27128;DHT22;14660;49.008;8.390;2022-08-19T12:01:38;27.80;99.90
27128;DHT22;14660;49.008;8.390;2022-08-19T12:04:09;27.90;99.90
27128;DHT22;14660;49.008;8.390;2022-08-19T12:06:38;27.90;99.90
27128;DHT22;14660;49.008;8.390;2022-08-19T12:09:07;27.90;99.90
27128;DHT22;14660;49.008;8.390;2022-08-19T12:11:38;27.90;99.90
27128;DHT22;14660;49.008;8.390;2022-08-19T12:14:09;27.80;99.90
27128;DHT22;14660;49.008;8.390;2022-08-19T12:16:36;27.60;99.90
27128;DHT22;14660;49.008;8.390;2022-08-19T12:19:04;27.50;99.90
27128;DHT22;14660;49.008;8.390;2022-08-19T12:21:34;27.40;99.90
27128;DHT22;14660;49.008;8.390;2022-08-19T12:24:12;27.30;99.90
27128;DHT22;14660;49.008;8.390;2022-08-19T12:26:38;27.20;99.90
27128;DHT22;14660;49.008;8.390;2022-08-19T12:29:06;27.20;99.90
27128;DHT22;14660;49.008;8.390;2022-08-19T12:31:34;27.20;99.90
27128;DHT22;14660;49.008;8.390;2022-08-19T12:34:01;27.20;99.90
27128;DHT22;14660;49.008;8.390;2022-08-19T12:36:28;27.20;99.90
27128;DHT22;14660;49.008;8.390;2022-08-19T12:38:55;27.20;99.90
27128;DHT22;14660;49.008;8.390;2022-08-19T12:41:25;27.20;99.90
27128;DHT22;14660;49.008;8.390;2022-08-19T12:43:52;27.20;99.90
27128;DHT22;14660;49.008;8.390;2022-08-19T12:46:19;27.20;99.90
27128;DHT22;14660;49.008;8.390;2022-08-19T12:48:49;27.20;99.90
27128;DHT22;14660;49.008;8.390;2022-08-19T12:51:17;27.30;99.90
27128;DHT22;14660;49.008;8.390;2022-08-19T12:53:45;27.40;99.90
27128;DHT22;14660;49.008;8.390;2022-08-19T12:56:12;27.50;99.90
27128;DHT22;14660;49.008;8.390;2022-08-19T12:58:44;27.60;99.90
27128;DHT22;14660;49.008;8.390;2022-08-19T13:01:14;27.80;99.90
27128;DHT22;14660;49.008;8.390;2022-08-19T13:03:41;28.00;99.90
27128;DHT22;14660;49.008;8.390;2022-08-19T13:06:10;28.10;99.90
27128;DHT22;14660;49.008;8.390;2022-08-19T13:08:38;28.20;99.90
27128;DHT22;14660;49.008;8.390;2022-08-19T13:11:14;28.20;99.90
27128;DHT22;14660;49.008;8.390;2022-08-19T13:13:48;28.20;99.90
27128;DHT22;14660;49.008;8.390;2022-08-19T13:16:15;28.20;99.90
27128;DHT22;14660;49.008;8.390;2022-08-19T13:18:44;28.20;99.90
27128;DHT22;14660;49.008;8.390;2022-08-19T13:21:11;28.20;99.90
27128;DHT22;14660;49.008;8.390;2022-08-19T13:23:40;28.30;99.90
27128;DHT22;14660;49.008;8.390;2022-08-19T13:26:09;28.40;99.90
27128;DHT22;14660;49.008;8.390;2022-08-19T13:28:37;28.40;99.90
27128;DHT22;14660;49.008;8.390;2022-08-19T13:31:24;28.50;99.90
27128;DHT22;14660;49.008;8.390;2022-08-19T13:34:10;28.60;99.90
27128;DHT22;14660;49.008;8.390;2022-08-19T13:36:38;28.60;99.90
27128;DHT22;14660;49.008;8.390;2022-08-19T13:39:06;28.60;99.90
27128;DHT22;14660;49.008;8.390;2022-08-19T13:41:34;28.60;99.90
27128;DHT22;14660;49.008;8.390;2022-08-19T13:44:01;28.50;99.90
27128;DHT22;14660;49.008;8.390;2022-08-19T13:46:28;28.50;99.90
27128;DHT22;14660;49.008;8.390;2022-08-19T13:48:56;28.60;99.90
27128;DHT22;14660;49.008;8.390;2022-08-19T13:51:23;28.60;99.90
27128;DHT22;14660;49.008;8.390;2022-08-19T13:53:50;28.70;99.90
27128;DHT22;14660;49.008;8.390;2022-08-19T13:56:18;28.70;99.90
27128;DHT22;14660;49.008;8.390;2022-08-19T13:58:46;28.70;99.90
27128;DHT22;14660;49.008;8.390;2022-08-19T14:01:19;28.80;99.90
27128;DHT22;14660;49.008;8.390;2022-08-19T14:03:46;28.80;99.90
27128;DHT22;14660;49.008;8.390;2022-08-19T14:06:12;28.90;99.90
27128;DHT22;14660;49.008;8.390;2022-08-19T14:08:39;29.10;99.90
27128;DHT22;14660;49.008;8.390;2022-08-19T14:11:09;29.20;99.90
27128;DHT22;14660;49.008;8.390;2022-08-19T14:13:35;29.30;99.90
27128;DHT22;14660;49.008;8.390;2022-08-19T14:16:10;29.30;99.90
27128;DHT22;14660;49.008;8.390;2022-08-19T14:18:38;29.30;99.90
27128;DHT22;14660;49.008;8.390;2022-08-19T14:21:07;29.20;99.90
27128;DHT22;14660;49.008;8.390;2022-08-19T14:23:34;29.10;99.90
27128;DHT22;14660;49.008;8.390;2022-08-19T14:26:12;29.10;99.90
27128;DHT22;14660;49.008;8.390;2022-08-19T14:28:40;29.00;99.90
27128;DHT22;14660;49.008;8.390;2022-08-19T14:31:10;29.00;99.90
27128;DHT22;14660;49.008;8.390;2022-08-19T14:33:37;29.10;99.90
27128;DHT22;14660;49.008;8.390;2022-08-19T14:36:05;29.10;99.90
27128;DHT22;14660;49.008;8.390;2022-08-19T14:38:32;28.90;99.90
27128;DHT22;14660;49.008;8.390;2022-08-19T14:41:19;29.00;99.90
27128;DHT22;14660;49.008;8.390;2022-08-19T14:43:48;29.00;99.90
27128;DHT22;14660;49.008;8.390;2022-08-19T14:46:21;28.90;99.90
27128;DHT22;14660;49.008;8.390;2022-08-19T14:48:49;28.90;99.90
27128;DHT22;14660;49.008;8.390;2022-08-19T14:51:16;28.90;99.90
27128;DHT22;14660;49.008;8.390;2022-08-19T14:53:43;28.80;99.90
27128;DHT22;14660;49.008;8.390;2022-08-19T14:56:12;28.70;99.90
27128;DHT22;14660;49.008;8.390;2022-08-19T14:58:40;28.60;99.90
27128;DHT22;14660;49.008;8.390;2022-08-19T15:01:08;28.60;99.90
27128;DHT22;14660;49.008;8.390;2022-08-19T15:03:35;28.50;99.90
27128;DHT22;14660;49.008;8.390;2022-08-19T15:06:04;28.50;99.90
27128;DHT22;14660;49.008;8.390;2022-08-19T15:08:32;28.30;99.90
27128;DHT22;14660;49.008;8.390;2022-08-19T15:11:00;28.20;99.90
27128;DHT22;14660;49.008;8.390;2022-08-19T15:13:27;28.20;99.90
27128;DHT22;14660;49.008;8.390;2022-08-19T15:15:55;28.10;99.90
27128;DHT22;14660;49.008;8.390;2022-08-19T15:18:23;28.10;99.90
27128;DHT22;14660;49.008;8.390;2022-08-19T15:20:50;28.00;99.90
27128;DHT22;14660;49.008;8.390;2022-08-19T15:23:19;27.90;99.90
27128;DHT22;14660;49.008;8.390;2022-08-19T15:25:46;27.90;99.90
27128;DHT22;14660;49.008;8.390;2022-08-19T15:28:13;27.90;99.90
27128;DHT22;14660;49.008;8.390;2022-08-19T15:30:42;27.90;99.90
27128;DHT22;14660;49.008;8.390;2022-08-19T15:33:10;27.80;99.90
27128;DHT22;14660;49.008;8.390;2022-08-19T15:35:41;27.80;99.90
27128;DHT22;14660;49.008;8.390;2022-08-19T15:38:09;27.90;99.90
27128;DHT22;14660;49.008;8.390;2022-08-19T15:40:40;27.90;99.90
27128;DHT22;14660;49.008;8.390;2022-08-19T15:43:07;27.90;99.90
27128;DHT22;14660;49.008;8.390;2022-08-19T15:45:34;27.90;99.90
27128;DHT22;14660;49.008;8.390;2022-08-19T15:48:03;27.90;99.90
27128;DHT22;14660;49.008;8.390;2022-08-19T15:50:30;27.90;99.90
27128;DHT22;14660;49.008;8.390;2022-08-19T15:53:04;27.90;99.90
27128;DHT22;14660;49.008;8.390;2022-08-19T15:55:36;27.90;99.90
27128;DHT22;14660;49.008;8.390;2022-08-19T15:58:06;28.00;99.90